Latest METARs, TAFs and NOTAMs for MYNN


---------------------------------------------------------------------------
	(OBSERVATIONS)
MYNN 170800Z 00000KT 9999 FEW020 26/23 A2993=
MYNN 170700Z 00000KT 9999 FEW020 27/24 A2993=
---------------------------------------------------------------------------
	(TERMINAL AREA FORECAST)
MYNN 170330Z 1706/1806 VRB02KT 9999 FEW020
    BECMG 1713/1715 05008KT SCT020 PROB30
    TEMPO 1717/1621 VCSH FEW018CB=
---------------------------------------------------------------------------
	(NOTAMS)


MYNN A0068/13 VOR Y RWY 14 FEEDER RTE FM MAJUR TO MUNIE NOT AVBL
    VOR Y RWY 14 FEEDER RTE FM MELON TO MUNIE NOT AVBL. SFC -
    UNL, 19 APR 19:55 2013 UNTIL PERM. CREATED: 19 APR 19:51
    2013

MYNN A0069/13 VOR Y RWY 09 FEEDER RTE FM MAJUR TO MUSSE NOT AVBL
    REMOVE PROCEDURE NOTE 'RADAR REQUIRED' FM APP CHART. SFC
    - UNL, 19 APR 19:55 2013 UNTIL PERM. CREATED: 19 APR 19:52
    2013

MYNN A0070/13 VOR Y RWY 32 FEEDER RTE FM PRUNE TO WELKS NOT AVBL
    REMOVE PROCEDURE NOTE 'RADAR REQUIRED' FM APP CHART. SFC
    - UNL, 19 APR 19:55 2013 UNTIL PERM. CREATED: 19 APR 19:54
    2013

MYNN A0108/15 INFORMATION LISTED IN AIC 3/2015 WITH THE EXCEPTION
    OF MYNN AND MYGF RNAV APCH PROC IN THE BAHAMAS ARE NOT AUTH
    DUE TO AIRSPACE CLASSIFICATION RESTRICTIONS. 01 JUN 18:00
    2015 UNTIL PERM. CREATED: 01 JUN 16:52 2015

MYNN A0168/17 ATS WILL ONLY ACCEPT NON-CLOSURE PLN'S TO MYSM
    MYCA MYCX MYCH MYCB MYAP MYCI MYCP MYMM MYRP MYLD MYLS DUE
    TO LACK OF COM. 28 JUL 20:00 2017 UNTIL 31 OCT 23:59 2017.
    CREATED: 28 JUL 15:53 2017

MYNN A0227/17 REF THE BAHAMAS AIP GEN 3.3 AIR TRAFFIC SERVICES
    AERODROME FLIGHT INFORMATION SERVICE (AFIS) WILL BE DEPICTED
    AS AFIS/ADVISORY SERVICE (AERODROME FLIGHT INFORMATION SERVICE
    / ADVISORY SERVICE) CHANGES AND UPDATES TO BE MADE IN THE
    AIP. 19 SEP 21:00 2017 UNTIL PERM. CREATED: 20 SEP 13:33
    2017

MYNN A0251/17 RWY 09/27 CLSD FOR AIRFIELD MAINT. 17 OCT 11:30
    2017 UNTIL 17 OCT 16:00 2017. CREATED: 16 OCT 20:54 2017

MYNN A0316/16 WIE THE DEPARTMENT OF CIVIL AVIATION BANS ALL SAMSUNG
    GALAXY NOTE 7 PHONES FROM ACFT TRAVELLING IN THE BAHAMAS.
    DEVICES MAY NOT BE TRANSPORTED BY PASSENGERS OR CREW ON THEIR
    PERSON, IN CARRY-ON BAGGAGE, OR IN CHECKED BAGGAGE ON FLIGHTS
    TO, FROM, OR WITHIN THE COMMONWEALTH OF THE BAHAMAS AND CANNOT
    BE SHIPPED AS AIR CARGO. 20 OCT 15:30 2016 UNTIL PERM. CREATED:
    20 OCT 15:12 2016

---------------------------------------------------------------------------